createdAt,value
2019-02-16T00:01:20.341Z,99073.98
2019-02-16T00:06:22.528Z,99071.21
2019-02-16T00:11:24.127Z,99068.95
2019-02-16T00:16:25.881Z,99076.41
2019-02-16T00:21:27.589Z,99079.95
2019-02-16T00:26:29.320Z,99073.50
2019-02-16T00:31:31.091Z,99076.23
2019-02-16T00:36:32.677Z,99070.19
2019-02-16T00:41:34.516Z,99064.93
2019-02-16T00:46:36.174Z,99063.20
2019-02-16T00:51:37.729Z,99060.17
2019-02-16T00:56:39.296Z,99055.95
2019-02-16T01:01:40.943Z,99056.89
2019-02-16T01:06:42.489Z,99053.32
2019-02-16T01:11:44.097Z,99044.31
2019-02-16T01:16:45.658Z,99043.97
2019-02-16T01:21:47.348Z,99033.17
2019-02-16T01:26:48.964Z,99034.62
2019-02-16T01:31:50.552Z,99038.09
2019-02-16T01:36:52.113Z,99033.33
2019-02-16T01:41:53.754Z,99034.38
2019-02-16T01:46:55.308Z,99029.44
2019-02-16T01:51:56.870Z,99036.38
2019-02-16T01:56:58.434Z,99031.04
2019-02-16T02:02:00.011Z,99009.25
2019-02-16T02:07:02.200Z,99006.75
2019-02-16T02:12:03.878Z,98997.08
2019-02-16T02:17:05.432Z,98999.70
2019-02-16T02:22:07.072Z,98996.64
2019-02-16T02:27:08.816Z,98992.44
2019-02-16T02:32:10.572Z,98992.98
2019-02-16T02:37:12.139Z,98996.38
2019-02-16T02:42:13.697Z,98995.33
2019-02-16T02:47:15.270Z,98995.77
2019-02-16T02:52:16.885Z,98993.82
2019-02-16T02:57:18.440Z,98991.59
2019-02-16T03:02:20.000Z,98994.63
2019-02-16T03:07:21.853Z,98996.45
2019-02-16T03:12:23.409Z,98995.77
2019-02-16T03:17:24.964Z,98996.64
2019-02-16T03:23:11.073Z,98995.13
2019-02-16T03:28:36.303Z,98996.38
2019-02-16T03:34:04.137Z,98991.19
2019-02-16T03:39:10.695Z,98989.94
2019-02-16T03:44:12.384Z,98984.53
2019-02-16T03:49:13.946Z,98982.81
2019-02-16T03:54:15.515Z,98978.53
2019-02-16T03:59:17.117Z,98976.94
2019-02-16T04:04:18.667Z,98976.53
2019-02-16T04:09:20.224Z,98969.27
2019-02-16T04:14:21.791Z,98973.69
2019-02-16T04:19:23.354Z,98968.70
2019-02-16T04:24:24.996Z,98971.48
2019-02-16T04:29:26.723Z,98965.59
2019-02-16T04:34:28.308Z,98965.19
2019-02-16T04:39:29.967Z,98965.32
2019-02-16T04:44:31.634Z,98966.50
2019-02-16T04:49:33.237Z,98967.66
2019-02-16T04:54:34.906Z,98963.98
2019-02-16T04:59:36.512Z,98962.55
2019-02-16T05:04:38.273Z,98962.10
2019-02-16T05:09:39.824Z,98966.21
2019-02-16T05:14:41.373Z,98964.55
2019-02-16T05:19:42.983Z,98959.36
2019-02-16T05:24:44.537Z,98963.30
2019-02-16T05:29:46.241Z,98965.53
2019-02-16T05:34:47.785Z,98966.13
2019-02-16T05:39:49.370Z,98970.70
2019-02-16T05:44:51.162Z,98969.73
2019-02-16T05:49:52.783Z,98966.23
2019-02-16T05:54:54.337Z,98970.70
2019-02-16T05:59:55.894Z,98980.47
2019-02-16T06:04:57.700Z,98978.09
2019-02-16T06:09:59.361Z,98984.83
2019-02-16T06:15:00.929Z,98986.36
2019-02-16T06:20:06.556Z,98976.30
2019-02-16T06:25:08.218Z,98987.27
2019-02-16T06:30:10.049Z,98990.17
2019-02-16T06:35:13.837Z,98993.94
2019-02-16T06:40:15.403Z,98994.02
2019-02-16T06:45:17.010Z,98993.45
2019-02-16T06:50:18.625Z,98997.09
2019-02-16T06:55:20.495Z,98997.73
2019-02-16T07:00:24.209Z,99003.51
2019-02-16T07:05:25.800Z,99001.66
2019-02-16T07:10:27.359Z,99003.69
2019-02-16T07:15:29.121Z,99000.92
2019-02-16T07:20:30.753Z,99002.19
2019-02-16T07:25:32.312Z,98999.06
2019-02-16T07:30:33.929Z,99005.63
2019-02-16T07:35:35.637Z,98997.39
2019-02-16T07:40:37.605Z,98997.29
2019-02-16T07:45:42.247Z,98996.94
2019-02-16T07:50:46.816Z,98994.69
2019-02-16T07:55:54.009Z,98999.05
2019-02-16T08:01:06.429Z,98994.95
2019-02-16T08:06:12.539Z,98994.85
2019-02-16T08:11:16.094Z,99002.56
2019-02-16T08:16:17.713Z,98996.12
2019-02-16T08:21:24.095Z,98992.72
2019-02-16T08:26:39.304Z,98993.90
2019-02-16T08:31:42.837Z,98987.02
2019-02-16T08:36:46.314Z,98987.40
2019-02-16T08:41:55.766Z,98986.41
2019-02-16T08:47:16.049Z,98991.37
2019-02-16T08:52:34.728Z,98989.11
2019-02-16T08:57:39.354Z,98984.98
2019-02-16T09:02:42.828Z,98986.62
2019-02-16T09:07:46.295Z,98996.09
2019-02-16T09:12:49.766Z,98987.44
2019-02-16T09:17:59.115Z,98996.70
2019-02-16T09:23:06.984Z,98997.42
2019-02-16T09:28:11.177Z,98990.70
2019-02-16T09:33:26.721Z,98997.58
2019-02-16T09:38:28.279Z,98992.75
2019-02-16T09:43:29.887Z,98984.61
2019-02-16T09:48:36.120Z,98991.05
2019-02-16T09:53:45.469Z,98990.72
2019-02-16T09:58:51.801Z,98987.53
2019-02-16T10:03:58.152Z,98996.13
2019-02-16T10:09:04.510Z,98993.97
2019-02-16T10:14:16.309Z,98991.14
2019-02-16T10:19:23.933Z,98982.55
2019-02-16T10:24:34.223Z,98981.20
2019-02-16T10:29:46.637Z,98982.73
2019-02-16T10:34:48.256Z,98973.42
2019-02-16T10:40:09.783Z,98974.89
2019-02-16T10:45:19.981Z,98976.15
2019-02-16T10:50:23.446Z,98970.95
2019-02-16T10:55:42.030Z,98958.80
2019-02-16T11:00:45.508Z,98958.24
2019-02-16T11:05:48.976Z,98962.28
2019-02-16T11:10:52.442Z,98960.20
2019-02-16T11:15:58.648Z,98951.22
2019-02-16T11:21:04.712Z,98942.80
2019-02-16T11:26:11.171Z,98939.95
2019-02-16T11:31:26.725Z,98942.11
2019-02-16T11:36:30.260Z,98950.03
2019-02-16T11:41:33.778Z,98933.59
2019-02-16T11:46:52.511Z,98938.78
2019-02-16T11:52:00.040Z,98928.78
2019-02-16T11:57:12.672Z,98925.69
2019-02-16T12:02:16.160Z,98917.33
2019-02-16T12:07:25.277Z,98906.61
2019-02-16T12:12:46.762Z,98900.66
2019-02-16T12:18:07.085Z,98899.12
2019-02-16T12:23:23.201Z,98891.54
2019-02-16T12:28:26.672Z,98884.12
2019-02-16T12:33:32.960Z,98870.63
2019-02-16T12:38:45.621Z,98876.72
2019-02-16T12:44:01.384Z,98869.97
2019-02-16T12:49:17.087Z,98873.02
2019-02-16T12:54:35.749Z,98869.31
2019-02-16T12:59:48.223Z,98862.22
2019-02-16T13:05:08.386Z,98866.59
2019-02-16T13:10:11.847Z,98860.88
2019-02-16T13:15:17.937Z,98861.53
2019-02-16T13:20:24.240Z,98856.83
2019-02-16T13:25:27.707Z,98852.75
2019-02-16T13:30:34.118Z,98855.13
2019-02-16T13:35:47.693Z,98849.06
2019-02-16T13:40:53.858Z,98848.38
2019-02-16T13:45:59.964Z,98849.73
2019-02-16T13:51:03.505Z,98842.64
2019-02-16T13:56:18.637Z,98838.59
2019-02-16T14:01:22.103Z,98837.25
2019-02-16T14:06:44.037Z,98833.16
2019-02-16T14:11:53.136Z,98827.05
2019-02-16T14:17:09.882Z,98829.76
2019-02-16T14:22:11.621Z,98826.65
2019-02-16T14:27:13.185Z,98825.23
2019-02-16T14:32:14.759Z,98814.84
2019-02-16T14:37:20.863Z,98809.45
2019-02-16T14:42:22.493Z,98809.86
2019-02-16T14:47:24.100Z,98809.64
2019-02-16T14:52:25.729Z,98803.09
2019-02-16T14:57:27.294Z,98799.23
2019-02-16T15:02:29.128Z,98798.22
2019-02-16T15:07:30.690Z,98787.00
2019-02-16T15:12:32.275Z,98782.48
2019-02-16T15:17:33.828Z,98775.34
2019-02-16T15:22:35.459Z,98775.27
2019-02-16T15:27:37.014Z,98772.70
2019-02-16T15:32:40.589Z,98773.72
2019-02-16T15:37:42.672Z,98767.78
2019-02-16T15:42:44.652Z,98768.27
2019-02-16T15:47:46.261Z,98771.43
2019-02-16T15:52:47.906Z,98769.62
2019-02-16T15:57:49.489Z,98769.66
2019-02-16T16:02:51.064Z,98771.20
2019-02-16T16:07:54.525Z,98760.95
2019-02-16T16:13:01.991Z,98765.95
2019-02-16T16:18:17.917Z,98758.68
2019-02-16T16:23:39.908Z,98769.13
2019-02-16T16:29:00.533Z,98767.69
2019-02-16T16:34:16.019Z,98762.35
2019-02-16T16:39:19.486Z,98759.07
2019-02-16T16:44:25.869Z,98756.61
2019-02-16T16:49:38.499Z,98756.64
2019-02-16T16:54:41.965Z,98760.44
2019-02-16T16:59:49.500Z,98756.72
2019-02-16T17:05:05.016Z,98752.79
2019-02-16T17:10:11.700Z,98750.54
2019-02-16T17:15:16.450Z,98742.30
2019-02-16T17:20:23.049Z,98743.57
2019-02-16T17:25:35.567Z,98746.55
2019-02-16T17:30:41.784Z,98745.77
2019-02-16T17:35:51.333Z,98744.50
2019-02-16T17:41:09.751Z,98740.28
2019-02-16T17:46:30.497Z,98741.36
2019-02-16T17:51:50.733Z,98732.23
2019-02-16T17:56:55.354Z,98731.82
2019-02-16T18:02:08.095Z,98731.48
2019-02-16T18:07:09.661Z,98721.30
2019-02-16T18:12:11.246Z,98721.39
2019-02-16T18:17:17.497Z,98719.25
2019-02-16T18:22:21.802Z,98724.05
2019-02-16T18:27:28.199Z,98717.22
2019-02-16T18:32:32.931Z,98716.61
2019-02-16T18:37:42.139Z,98724.23
2019-02-16T18:43:02.609Z,98722.47
2019-02-16T18:48:08.830Z,98717.34
2019-02-16T18:53:18.365Z,98720.39
2019-02-16T18:58:31.137Z,98720.25
2019-02-16T19:03:34.609Z,98718.65
2019-02-16T19:08:38.063Z,98719.52
2019-02-16T19:13:47.487Z,98712.54
2019-02-16T19:18:51.301Z,98706.50
2019-02-16T19:24:03.692Z,98699.13
2019-02-16T19:29:14.693Z,98691.02
2019-02-16T19:34:16.255Z,98689.48
2019-02-16T19:39:22.602Z,98684.56
2019-02-16T19:44:24.233Z,98684.19
2019-02-16T19:49:28.803Z,98683.06
2019-02-16T19:54:35.168Z,98677.97
2019-02-16T19:59:55.129Z,98676.63
2019-02-16T20:05:16.875Z,98671.88
2019-02-16T20:10:32.706Z,98667.13
2019-02-16T20:15:46.198Z,98663.74
2019-02-16T20:20:48.010Z,98662.39
2019-02-16T20:25:53.809Z,98665.17
2019-02-16T20:31:06.315Z,98663.43
2019-02-16T20:36:26.020Z,98660.42
2019-02-16T20:41:29.487Z,98652.75
2019-02-16T20:46:44.946Z,98647.26
2019-02-16T20:52:07.325Z,98650.13
2019-02-16T20:57:11.762Z,98643.25
2019-02-16T21:02:31.238Z,98641.88
2019-02-16T21:07:51.568Z,98638.30
2019-02-16T21:13:01.045Z,98637.42
2019-02-16T21:18:20.044Z,98646.03
2019-02-16T21:23:27.811Z,98641.88
2019-02-16T21:28:37.145Z,98635.87
2019-02-16T21:33:40.622Z,98635.18
2019-02-16T21:38:48.030Z,98638.46
2019-02-16T21:43:51.495Z,98641.57
2019-02-16T21:48:55.005Z,98633.09
2019-02-16T21:54:10.431Z,98627.46
2019-02-16T21:59:19.502Z,98628.60
2019-02-16T22:04:26.112Z,98635.70
2019-02-16T22:09:29.686Z,98634.16
2019-02-16T22:14:31.250Z,98625.73
2019-02-16T22:19:32.811Z,98619.61
2019-02-16T22:24:34.478Z,98618.98
2019-02-16T22:29:36.042Z,98622.42
2019-02-16T22:34:37.607Z,98618.31
2019-02-16T22:39:39.168Z,98608.03
2019-02-16T22:44:40.723Z,98613.66
2019-02-16T22:49:42.318Z,98610.02
2019-02-16T22:54:43.957Z,98605.48
2019-02-16T22:59:45.817Z,98605.05
2019-02-16T23:04:47.377Z,98603.55
2019-02-16T23:09:48.968Z,98605.66
2019-02-16T23:14:50.776Z,98606.76
2019-02-16T23:19:52.603Z,98598.13
2019-02-16T23:24:54.972Z,98611.47
2019-02-16T23:29:57.652Z,98608.28
2019-02-16T23:34:59.525Z,98599.01
2019-02-16T23:40:01.081Z,98606.58
2019-02-16T23:45:06.863Z,98605.95
2019-02-16T23:50:10.621Z,98606.47
2019-02-16T23:55:12.241Z,98604.71
